This is the latest recevied weather packets stored in our database for station/object VE7GEL. If no packets are shown the sender has not sent any weather packets the latest 10 day(s).
| Time | Temp. | Humidity | Pressure | Rain* | Wind** | Luminosity | Snow |
|---|---|---|---|---|---|---|---|
| 1777504652 | 16.11° C | 67% | 1023.8 hPa | 0 mm | - | 775 W/m² | - |
| 1777504502 | 15.56° C | 67% | 1024.2 hPa | 0 mm | - | 786 W/m² | - |
| 1777503753 | 15° C | 70% | 1024 hPa | 0 mm | - | 822 W/m² | - |
| 1777503602 | 14.44° C | 73% | 1024.4 hPa | 0 mm | - | 831 W/m² | - |
| 1777502851 | 13.33° C | 84% | 1024.2 hPa | 0 mm | - | 868 W/m² | - |
| 1777502703 | 13.33° C | 85% | 1024.5 hPa | 0 mm | - | 877 W/m² | - |
| 1777501950 | 12.78° C | 84% | 1024.3 hPa | 0 mm | - | 904 W/m² | - |
| 1777501051 | 12.78° C | 87% | 1024.3 hPa | 0 mm | - | 192 W/m² | - |
| 1777500902 | 12.78° C | 87% | 1024.6 hPa | 0 mm | - | 163 W/m² | - |
| 1777500148 | 12.78° C | 86% | 1024.2 hPa | 0 mm | - | 67 W/m² | - |
| 1777499248 | 13.33° C | 84% | 1024.2 hPa | 0 mm | - | 64 W/m² | - |
| 1777499134 | 13.33° C | 83% | 1024.5 hPa | 0 mm | - | 64 W/m² | - |
| 1777499102 | 13.33° C | 83% | 1024.5 hPa | 0 mm | - | 64 W/m² | - |
| 1777498348 | 15° C | 78% | 1024.3 hPa | 0 mm | - | 63 W/m² | - |
| 1777497449 | 16.67° C | 64% | 1024.2 hPa | 0 mm | - | 59 W/m² | - |
| 1777497303 | 16.67° C | 64% | 1024.5 hPa | 0 mm | - | 59 W/m² | - |
| 1777496546 | 16.11° C | 67% | 1024.3 hPa | 0 mm | - | 57 W/m² | - |
| 1777495646 | 15.56° C | 71% | 1024.5 hPa | 0 mm | - | 55 W/m² | - |
| 1777495502 | 15° C | 72% | 1024.8 hPa | 0 mm | - | 55 W/m² | - |
| 1777494744 | 14.44° C | 77% | 1024.5 hPa | 0 mm | - | 51 W/m² | - |
| 1777493843 | 13.89° C | 81% | 1024.7 hPa | 0 mm | - | 49 W/m² | - |
| 1777493703 | 13.89° C | 82% | 1025 hPa | 0 mm | - | 49 W/m² | - |
| 1777492943 | 13.33° C | 81% | 1024.6 hPa | 0 mm | - | 47 W/m² | - |
| 1777492040 | 13.33° C | 81% | 1024.7 hPa | 0 mm | - | 45 W/m² | - |
| 1777491140 | 12.78° C | 83% | 1024.8 hPa | 0 mm | - | 46 W/m² | - |
* Rain latest hour (hover to see other rain measurements)
** Current wind speed in m/s (hover to see current wind gust speed)